createdAt,value
2022-08-17T00:00:43.513Z,60.30
2022-08-17T00:03:15.140Z,60.40
2022-08-17T00:05:49.098Z,60.40
2022-08-17T00:08:20.252Z,60.50
2022-08-17T00:10:49.487Z,60.50
2022-08-17T00:13:21.333Z,60.50
2022-08-17T00:15:49.846Z,60.50
2022-08-17T00:19:04.185Z,60.60
2022-08-17T00:21:11.779Z,60.60
2022-08-17T00:23:44.250Z,60.60
2022-08-17T00:26:44.352Z,60.60
2022-08-17T00:29:05.817Z,60.70
2022-08-17T00:31:36.292Z,60.70
2022-08-17T00:34:06.880Z,60.90
2022-08-17T00:36:36.858Z,61.00
2022-08-17T00:39:07.333Z,61.10
2022-08-17T00:41:35.951Z,61.20
2022-08-17T00:44:09.979Z,61.30
2022-08-17T00:46:43.242Z,61.40
2022-08-17T00:49:19.412Z,61.50
2022-08-17T00:51:53.818Z,61.50
2022-08-17T00:54:31.473Z,61.70
2022-08-17T00:57:05.505Z,61.90
2022-08-17T00:59:38.802Z,62.10
2022-08-17T01:02:09.875Z,62.30
2022-08-17T01:04:38.780Z,62.50
2022-08-17T01:07:11.264Z,62.90
2022-08-17T01:09:42.703Z,63.10
2022-08-17T01:12:12.383Z,63.10
2022-08-17T01:14:41.415Z,63.00
2022-08-17T01:17:12.362Z,62.80
2022-08-17T01:19:45.314Z,62.60
2022-08-17T01:22:21.240Z,62.50
2022-08-17T01:24:53.610Z,62.60
2022-08-17T01:27:22.968Z,62.90
2022-08-17T01:29:58.642Z,63.00
2022-08-17T01:32:30.452Z,63.10
2022-08-17T01:35:00.690Z,63.10
2022-08-17T01:37:35.383Z,63.10
2022-08-17T01:40:10.385Z,63.40
2022-08-17T01:42:44.270Z,63.50
2022-08-17T01:45:17.583Z,63.60
2022-08-17T01:47:46.344Z,63.60
2022-08-17T01:50:17.438Z,63.50
2022-08-17T01:52:49.756Z,63.70
2022-08-17T01:55:25.864Z,63.90
2022-08-17T01:57:55.650Z,64.20
2022-08-17T02:00:24.103Z,64.40
2022-08-17T02:02:52.532Z,64.60
2022-08-17T02:05:20.981Z,64.80
2022-08-17T02:08:00.349Z,65.20
2022-08-17T02:10:33.699Z,65.30
2022-08-17T02:13:02.747Z,65.60
2022-08-17T02:15:32.029Z,65.70
2022-08-17T02:18:00.759Z,66.10
2022-08-17T02:20:41.790Z,66.50
2022-08-17T02:23:13.256Z,66.40
2022-08-17T02:25:47.783Z,66.10
2022-08-17T02:28:16.538Z,65.70
2022-08-17T02:30:59.265Z,65.60
2022-08-17T02:33:42.054Z,65.60
2022-08-17T02:36:14.610Z,65.50
2022-08-17T02:38:44.651Z,65.40
2022-08-17T02:41:13.829Z,65.60
2022-08-17T02:43:44.893Z,65.60
2022-08-17T02:46:13.782Z,65.60
2022-08-17T02:48:42.094Z,65.70
2022-08-17T02:51:10.600Z,65.60
2022-08-17T02:53:38.919Z,65.70
2022-08-17T02:56:08.681Z,65.60
2022-08-17T02:58:37.046Z,65.50
2022-08-17T03:01:06.878Z,65.50
2022-08-17T03:03:36.089Z,65.70
2022-08-17T03:06:05.423Z,65.90
2022-08-17T03:08:33.807Z,65.80
2022-08-17T03:11:02.097Z,65.60
2022-08-17T03:13:32.009Z,65.60
2022-08-17T03:16:00.779Z,65.90
2022-08-17T03:18:29.195Z,65.90
2022-08-17T03:21:01.738Z,66.00
2022-08-17T03:23:31.155Z,66.10
2022-08-17T03:26:02.751Z,66.20
2022-08-17T03:28:32.398Z,66.30
2022-08-17T03:31:03.147Z,66.40
2022-08-17T03:33:33.724Z,66.60
2022-08-17T03:36:04.311Z,66.60
2022-08-17T03:38:39.468Z,66.60
2022-08-17T03:41:08.603Z,66.50
2022-08-17T03:43:38.243Z,66.30
2022-08-17T03:46:28.837Z,66.10
2022-08-17T03:49:21.238Z,66.00
2022-08-17T03:52:06.732Z,65.90
2022-08-17T03:54:52.294Z,65.90
2022-08-17T03:57:20.742Z,65.90
2022-08-17T03:59:51.064Z,66.00
2022-08-17T04:02:23.543Z,66.30
2022-08-17T04:04:54.364Z,66.60
2022-08-17T04:07:24.965Z,66.70
2022-08-17T04:09:53.457Z,66.70
2022-08-17T04:12:25.644Z,66.60
2022-08-17T04:14:56.388Z,66.60
2022-08-17T04:17:27.453Z,66.70
2022-08-17T04:19:57.102Z,66.80
2022-08-17T04:22:33.203Z,67.00
2022-08-17T04:25:05.462Z,67.10
2022-08-17T04:27:33.998Z,67.10
2022-08-17T04:30:03.719Z,66.90
2022-08-17T04:33:03.494Z,66.80
2022-08-17T04:35:27.303Z,66.80
2022-08-17T04:37:55.400Z,66.60
2022-08-17T04:40:42.439Z,66.50
2022-08-17T04:43:14.275Z,66.20
2022-08-17T04:45:55.544Z,70.50
2022-08-17T04:48:35.368Z,68.50
2022-08-17T04:51:10.171Z,67.10
2022-08-17T04:53:40.438Z,66.50
2022-08-17T04:56:16.045Z,66.00
2022-08-17T04:58:46.324Z,65.70
2022-08-17T05:01:17.341Z,65.50
2022-08-17T05:03:51.992Z,65.30
2022-08-17T05:06:20.283Z,64.90
2022-08-17T05:08:48.541Z,64.50
2022-08-17T05:11:16.997Z,64.20
2022-08-17T05:13:45.231Z,63.90
2022-08-17T05:16:15.081Z,63.50
2022-08-17T05:18:45.775Z,63.30
2022-08-17T05:21:16.572Z,62.80
2022-08-17T05:23:50.272Z,62.40
2022-08-17T05:26:25.915Z,62.00
2022-08-17T05:28:59.479Z,61.90
2022-08-17T05:31:29.795Z,61.70
2022-08-17T05:34:00.917Z,61.10
2022-08-17T05:36:43.414Z,60.70
2022-08-17T05:39:16.522Z,60.50
2022-08-17T05:41:48.111Z,60.30
2022-08-17T05:44:17.203Z,59.60
2022-08-17T05:46:49.934Z,59.00
2022-08-17T05:49:22.453Z,58.80
2022-08-17T05:52:09.434Z,58.40
2022-08-17T05:54:50.107Z,59.00
2022-08-17T05:57:53.048Z,57.70
2022-08-17T06:00:30.193Z,57.30
2022-08-17T06:03:23.689Z,56.80
2022-08-17T06:06:22.050Z,56.80
2022-08-17T06:08:57.846Z,56.40
2022-08-17T06:11:38.082Z,55.90
2022-08-17T06:14:22.232Z,55.80
2022-08-17T06:16:56.247Z,56.00
2022-08-17T06:19:35.049Z,55.60
2022-08-17T06:22:05.881Z,55.50
2022-08-17T06:24:38.896Z,55.30
2022-08-17T06:27:20.445Z,54.90
2022-08-17T06:29:55.048Z,53.80
2022-08-17T06:32:23.414Z,53.10
2022-08-17T06:34:53.808Z,52.70
2022-08-17T06:37:39.239Z,52.30
2022-08-17T06:40:31.879Z,52.20
2022-08-17T06:43:14.106Z,52.20
2022-08-17T06:45:49.305Z,52.30
2022-08-17T06:48:25.618Z,52.30
2022-08-17T06:51:00.128Z,51.70
2022-08-17T06:53:35.923Z,51.60
2022-08-17T06:56:08.789Z,51.30
2022-08-17T06:58:40.307Z,50.80
2022-08-17T07:01:11.687Z,50.60
2022-08-17T07:03:46.174Z,50.20
2022-08-17T07:06:20.789Z,50.10
2022-08-17T07:08:56.673Z,50.20
2022-08-17T07:11:31.415Z,50.30
2022-08-17T07:14:17.125Z,50.40
2022-08-17T07:16:51.428Z,50.90
2022-08-17T07:19:23.177Z,50.50
2022-08-17T07:21:58.544Z,50.40
2022-08-17T07:24:35.725Z,50.10
2022-08-17T07:27:09.862Z,49.60
2022-08-17T07:29:46.428Z,49.10
2022-08-17T07:32:19.066Z,48.90
2022-08-17T07:35:21.222Z,48.70
2022-08-17T07:38:25.185Z,48.60
2022-08-17T07:41:03.601Z,48.60
2022-08-17T07:43:34.060Z,48.80
2022-08-17T07:46:24.991Z,48.60
2022-08-17T07:48:55.436Z,48.70
2022-08-17T07:51:27.750Z,47.90
2022-08-17T07:54:13.596Z,47.50
2022-08-17T07:56:45.968Z,47.20
2022-08-17T07:59:18.152Z,46.50
2022-08-17T08:02:06.148Z,46.20
2022-08-17T08:04:59.158Z,45.80
2022-08-17T08:07:30.445Z,45.30
2022-08-17T08:10:09.598Z,45.50
2022-08-17T08:12:42.092Z,45.10
2022-08-17T08:15:19.092Z,44.80
2022-08-17T08:17:51.966Z,44.10
2022-08-17T08:20:51.379Z,44.40
2022-08-17T08:23:25.724Z,44.40
2022-08-17T08:26:05.248Z,44.40
2022-08-17T08:28:44.566Z,44.40
2022-08-17T08:31:25.301Z,43.60
2022-08-17T08:34:09.176Z,43.10
2022-08-17T08:37:17.645Z,43.20
2022-08-17T08:39:59.047Z,42.80
2022-08-17T08:42:36.376Z,41.80
2022-08-17T08:45:13.781Z,42.70
2022-08-17T08:48:05.105Z,42.90
2022-08-17T08:50:43.859Z,43.20
2022-08-17T08:53:23.552Z,43.50
2022-08-17T08:55:57.346Z,43.50
2022-08-17T08:58:42.326Z,43.10
2022-08-17T09:01:19.530Z,43.10
2022-08-17T09:04:25.857Z,41.50
2022-08-17T09:07:07.224Z,42.60
2022-08-17T09:09:46.672Z,43.00
2022-08-17T09:12:21.767Z,43.00
2022-08-17T09:14:59.583Z,43.00
2022-08-17T09:17:37.615Z,43.20
2022-08-17T09:20:27.509Z,43.30
2022-08-17T09:23:00.873Z,43.80
2022-08-17T09:25:36.527Z,44.70
2022-08-17T09:28:08.489Z,44.90
2022-08-17T09:30:45.535Z,45.00
2022-08-17T09:33:17.022Z,44.90
2022-08-17T09:35:50.372Z,44.70
2022-08-17T09:38:32.158Z,44.40
2022-08-17T09:41:10.627Z,44.20
2022-08-17T09:43:45.830Z,44.20
2022-08-17T09:46:19.522Z,43.90
2022-08-17T09:48:55.686Z,44.00
2022-08-17T09:51:30.393Z,44.20
2022-08-17T09:54:27.767Z,44.00
2022-08-17T09:57:25.828Z,44.10
2022-08-17T10:00:08.074Z,44.10
2022-08-17T10:03:09.944Z,44.20
2022-08-17T10:05:46.735Z,44.20
2022-08-17T10:08:25.593Z,43.80
2022-08-17T10:11:07.055Z,43.90
2022-08-17T10:13:53.025Z,43.80
2022-08-17T10:16:28.606Z,43.20
2022-08-17T10:19:10.687Z,44.50
2022-08-17T10:22:32.313Z,45.60
2022-08-17T10:25:22.316Z,45.80
2022-08-17T10:27:57.780Z,45.60
2022-08-17T10:30:31.005Z,46.20
2022-08-17T10:33:02.265Z,46.60
2022-08-17T10:35:34.162Z,46.70
2022-08-17T10:38:28.653Z,46.60
2022-08-17T10:41:01.589Z,46.70
2022-08-17T10:44:37.498Z,46.10
2022-08-17T10:46:52.202Z,45.70
2022-08-17T10:49:32.688Z,45.00
2022-08-17T10:52:03.205Z,44.70
2022-08-17T10:54:40.081Z,44.00
2022-08-17T10:57:36.620Z,44.10
2022-08-17T11:00:12.984Z,44.10
2022-08-17T11:02:49.749Z,44.30
2022-08-17T11:05:43.743Z,44.00
2022-08-17T11:08:36.202Z,43.70
2022-08-17T11:11:50.066Z,44.10
2022-08-17T11:14:39.948Z,44.20
2022-08-17T11:17:23.175Z,43.70
2022-08-17T11:20:19.516Z,43.50
2022-08-17T11:23:15.206Z,43.10
2022-08-17T11:25:51.917Z,42.90
2022-08-17T11:28:26.645Z,43.10
2022-08-17T11:30:58.959Z,43.30
2022-08-17T11:33:54.087Z,43.10
2022-08-17T11:36:48.486Z,43.80
2022-08-17T11:39:29.909Z,43.70
2022-08-17T11:42:05.556Z,43.60
2022-08-17T11:44:48.024Z,44.00
2022-08-17T11:47:39.489Z,44.50
2022-08-17T11:50:45.047Z,45.00
2022-08-17T11:53:46.964Z,45.00
2022-08-17T11:56:33.733Z,45.40
2022-08-17T11:59:02.941Z,44.80
2022-08-17T12:01:55.801Z,44.20
2022-08-17T12:04:31.678Z,44.40
2022-08-17T12:07:08.374Z,44.60
2022-08-17T12:09:42.435Z,44.80
2022-08-17T12:12:15.144Z,44.90
2022-08-17T12:15:09.441Z,44.40
2022-08-17T12:17:46.739Z,44.40
2022-08-17T12:20:23.477Z,44.40
2022-08-17T12:23:03.735Z,43.60
2022-08-17T12:25:38.586Z,43.50
2022-08-17T12:28:20.146Z,43.60
2022-08-17T12:30:51.962Z,43.20
2022-08-17T12:33:28.461Z,43.60
2022-08-17T12:36:00.148Z,44.20
2022-08-17T12:38:32.384Z,44.40
2022-08-17T12:41:23.453Z,44.50
2022-08-17T12:43:56.831Z,44.60
2022-08-17T12:46:25.198Z,44.40
2022-08-17T12:48:59.964Z,44.30
2022-08-17T12:51:29.992Z,45.10
2022-08-17T12:54:00.653Z,45.30
2022-08-17T12:56:29.977Z,45.60
2022-08-17T12:58:58.650Z,45.70
2022-08-17T13:01:27.800Z,47.60
2022-08-17T13:03:59.866Z,48.20
2022-08-17T13:06:33.284Z,48.80
2022-08-17T13:09:09.844Z,46.90
2022-08-17T13:11:46.964Z,46.30
2022-08-17T13:14:18.453Z,46.00
2022-08-17T13:16:54.044Z,46.00
2022-08-17T13:19:39.804Z,45.50
2022-08-17T13:22:13.417Z,46.50
2022-08-17T13:24:54.547Z,45.40
2022-08-17T13:27:23.879Z,45.20
2022-08-17T13:29:56.487Z,44.50
2022-08-17T13:32:39.948Z,43.80
2022-08-17T13:35:39.455Z,43.60
2022-08-17T13:38:11.820Z,43.70
2022-08-17T13:40:50.243Z,43.50
2022-08-17T13:43:44.620Z,42.90
2022-08-17T13:46:22.601Z,43.00
2022-08-17T13:49:03.083Z,42.60
2022-08-17T13:51:43.323Z,42.50
2022-08-17T13:54:28.947Z,42.20
2022-08-17T13:57:01.322Z,42.40
2022-08-17T13:59:54.395Z,42.20
2022-08-17T14:02:28.552Z,42.80
2022-08-17T14:04:58.490Z,43.40
2022-08-17T14:07:34.974Z,43.50
2022-08-17T14:10:08.743Z,43.80
2022-08-17T14:12:40.316Z,44.00
2022-08-17T14:15:10.826Z,44.10
2022-08-17T14:17:39.363Z,43.50
2022-08-17T14:20:11.817Z,43.70
2022-08-17T14:22:45.076Z,43.80
2022-08-17T14:25:15.393Z,44.20
2022-08-17T14:27:52.883Z,44.30
2022-08-17T14:30:26.019Z,43.90
2022-08-17T14:32:56.634Z,43.80
2022-08-17T14:35:27.488Z,43.90
2022-08-17T14:37:57.731Z,44.00
2022-08-17T14:40:27.281Z,44.10
2022-08-17T14:42:57.821Z,43.90
2022-08-17T14:45:30.186Z,44.10
2022-08-17T14:48:01.217Z,44.20
2022-08-17T14:50:29.531Z,44.40
2022-08-17T14:53:04.551Z,44.30
2022-08-17T14:55:32.986Z,44.40
2022-08-17T14:58:01.471Z,44.10
2022-08-17T15:00:32.082Z,43.50
2022-08-17T15:03:02.483Z,43.90
2022-08-17T15:05:33.759Z,44.40
2022-08-17T15:08:07.966Z,44.20
2022-08-17T15:10:39.144Z,44.40
2022-08-17T15:13:21.639Z,44.10
2022-08-17T15:15:50.867Z,44.30
2022-08-17T15:18:20.106Z,44.10
2022-08-17T15:20:50.137Z,44.30
2022-08-17T15:23:22.621Z,44.60
2022-08-17T15:25:53.079Z,44.80
2022-08-17T15:28:22.838Z,44.80
2022-08-17T15:30:52.161Z,44.30
2022-08-17T15:33:29.242Z,44.00
2022-08-17T15:35:59.465Z,43.90
2022-08-17T15:38:39.186Z,43.50
2022-08-17T15:41:08.633Z,43.40
2022-08-17T15:43:37.711Z,43.50
2022-08-17T15:46:12.192Z,43.40
2022-08-17T15:48:42.707Z,43.60
2022-08-17T15:51:19.660Z,43.60
2022-08-17T15:53:52.597Z,43.50
2022-08-17T15:56:23.081Z,43.70
2022-08-17T15:58:52.138Z,42.90
2022-08-17T16:03:14.371Z,41.90
2022-08-17T16:04:30.199Z,41.30
2022-08-17T16:06:59.603Z,41.00
2022-08-17T16:09:29.783Z,41.50
2022-08-17T16:11:58.099Z,41.70
2022-08-17T16:14:34.240Z,42.00
2022-08-17T16:17:04.564Z,41.90
2022-08-17T16:19:34.386Z,41.70
2022-08-17T16:22:07.636Z,41.90
2022-08-17T16:24:38.433Z,41.90
2022-08-17T16:27:12.670Z,41.90
2022-08-17T16:29:42.416Z,42.20
2022-08-17T16:32:14.639Z,42.10
2022-08-17T16:34:43.636Z,42.30
2022-08-17T16:37:14.228Z,42.30
2022-08-17T16:39:43.936Z,42.70
2022-08-17T16:42:24.607Z,42.40
2022-08-17T16:44:53.772Z,42.70
2022-08-17T16:47:22.682Z,42.90
2022-08-17T16:49:51.645Z,43.30
2022-08-17T16:52:32.645Z,43.00
2022-08-17T16:55:05.057Z,43.10
2022-08-17T16:57:33.403Z,43.00
2022-08-17T17:00:01.884Z,43.10
2022-08-17T17:02:32.593Z,42.70
2022-08-17T17:05:09.141Z,43.00
2022-08-17T17:08:00.910Z,43.10
2022-08-17T17:10:37.189Z,43.20
2022-08-17T17:13:09.243Z,43.80
2022-08-17T17:15:49.413Z,43.10
2022-08-17T17:18:20.173Z,43.10
2022-08-17T17:20:56.030Z,43.00
2022-08-17T17:23:35.386Z,43.10
2022-08-17T17:26:17.283Z,43.40
2022-08-17T17:29:02.019Z,43.40
2022-08-17T17:31:39.346Z,43.30
2022-08-17T17:34:11.353Z,43.70
2022-08-17T17:36:42.806Z,43.90
2022-08-17T17:39:16.720Z,44.10
2022-08-17T17:41:50.525Z,44.10
2022-08-17T17:44:25.701Z,44.20
2022-08-17T17:46:58.438Z,44.30
2022-08-17T17:49:29.739Z,44.40
2022-08-17T17:52:10.298Z,44.60
2022-08-17T17:55:06.999Z,44.70
2022-08-17T17:57:50.660Z,44.90
2022-08-17T18:00:24.378Z,45.10
2022-08-17T18:03:06.453Z,45.30
2022-08-17T18:05:53.001Z,45.50
2022-08-17T18:08:34.870Z,45.40
2022-08-17T18:11:14.662Z,45.50
2022-08-17T18:14:11.251Z,45.60
2022-08-17T18:16:42.862Z,46.00
2022-08-17T18:19:14.428Z,46.20
2022-08-17T18:21:47.038Z,46.40
2022-08-17T18:24:15.652Z,46.70
2022-08-17T18:26:50.265Z,46.90
2022-08-17T18:29:31.314Z,47.10
2022-08-17T18:32:28.453Z,47.40
2022-08-17T18:35:00.150Z,47.90
2022-08-17T18:37:37.822Z,47.70
2022-08-17T18:40:26.273Z,47.60
2022-08-17T18:43:03.020Z,47.90
2022-08-17T18:45:40.873Z,47.80
2022-08-17T18:48:29.537Z,47.70
2022-08-17T18:51:00.658Z,47.50
2022-08-17T18:53:38.099Z,47.80
2022-08-17T18:56:26.750Z,47.80
2022-08-17T18:59:11.981Z,48.00
2022-08-17T19:01:59.716Z,48.10
2022-08-17T19:04:35.793Z,48.20
2022-08-17T19:07:11.775Z,48.20
2022-08-17T19:09:44.957Z,48.20
2022-08-17T19:12:27.169Z,48.20
2022-08-17T19:14:56.823Z,48.20
2022-08-17T19:17:35.436Z,48.20
2022-08-17T19:20:11.318Z,48.20
2022-08-17T19:22:54.540Z,48.30
2022-08-17T19:25:27.595Z,48.00
2022-08-17T19:28:00.877Z,48.10
2022-08-17T19:30:32.172Z,48.20
2022-08-17T19:33:02.886Z,48.20
2022-08-17T19:35:39.459Z,48.40
2022-08-17T19:38:13.625Z,48.60
2022-08-17T19:40:59.268Z,48.60
2022-08-17T19:43:39.392Z,48.70
2022-08-17T19:46:15.802Z,48.50
2022-08-17T19:48:53.385Z,48.60
2022-08-17T19:51:45.163Z,48.80
2022-08-17T19:54:20.511Z,48.90
2022-08-17T19:56:57.988Z,48.90
2022-08-17T19:59:48.967Z,49.20
2022-08-17T20:02:34.742Z,49.20
2022-08-17T20:05:09.374Z,49.30
2022-08-17T20:07:46.419Z,49.30
2022-08-17T20:10:21.851Z,49.50
2022-08-17T20:12:52.246Z,49.50
2022-08-17T20:15:26.895Z,49.70
2022-08-17T20:17:58.425Z,49.70
2022-08-17T20:20:34.687Z,49.70
2022-08-17T20:23:10.976Z,49.50
2022-08-17T20:25:47.190Z,49.40
2022-08-17T20:28:23.415Z,49.30
2022-08-17T20:30:52.875Z,49.20
2022-08-17T20:33:27.736Z,49.30
2022-08-17T20:36:19.399Z,49.30
2022-08-17T20:38:50.409Z,49.60
2022-08-17T20:41:22.383Z,49.60
2022-08-17T20:44:03.427Z,49.70
2022-08-17T20:46:52.240Z,49.80
2022-08-17T20:49:27.374Z,49.90
2022-08-17T20:52:02.794Z,49.10
2022-08-17T20:54:52.825Z,49.20
2022-08-17T20:57:47.392Z,48.80
2022-08-17T21:00:47.042Z,49.00
2022-08-17T21:03:51.901Z,49.40
2022-08-17T21:06:25.065Z,49.60
2022-08-17T21:08:59.024Z,49.50
2022-08-17T21:12:02.627Z,49.60
2022-08-17T21:14:45.265Z,49.60
2022-08-17T21:17:31.144Z,49.50
2022-08-17T21:20:11.404Z,49.40
2022-08-17T21:22:53.620Z,48.70
2022-08-17T21:25:56.010Z,48.70
2022-08-17T21:28:35.416Z,49.90
2022-08-17T21:31:08.705Z,49.80
2022-08-17T21:33:39.598Z,49.90
2022-08-17T21:36:26.614Z,50.00
2022-08-17T21:39:08.709Z,50.20
2022-08-17T21:41:52.861Z,50.20
2022-08-17T21:44:30.525Z,50.40
2022-08-17T21:47:14.661Z,50.80
2022-08-17T21:49:43.651Z,51.40
2022-08-17T21:52:15.949Z,51.70
2022-08-17T21:54:51.679Z,52.00
2022-08-17T21:57:27.518Z,52.30
2022-08-17T21:59:59.266Z,52.60
2022-08-17T22:02:32.222Z,53.00
2022-08-17T22:05:03.253Z,53.40
2022-08-17T22:07:38.589Z,53.90
2022-08-17T22:10:09.213Z,54.30
2022-08-17T22:12:38.918Z,54.70
2022-08-17T22:15:09.777Z,55.30
2022-08-17T22:17:42.247Z,55.70
2022-08-17T22:20:14.626Z,55.80
2022-08-17T22:23:39.974Z,56.10
2022-08-17T22:26:12.731Z,56.50
2022-08-17T22:28:46.861Z,56.60
2022-08-17T22:31:17.223Z,57.00
2022-08-17T22:33:49.004Z,57.20
2022-08-17T22:36:29.446Z,57.40
2022-08-17T22:39:03.124Z,57.50
2022-08-17T22:41:43.927Z,57.40
2022-08-17T22:44:23.209Z,57.30
2022-08-17T22:47:06.771Z,57.20
2022-08-17T22:49:54.045Z,57.20
2022-08-17T22:52:34.668Z,56.90
2022-08-17T22:55:26.664Z,57.20
2022-08-17T22:58:12.113Z,56.40
2022-08-17T23:00:44.910Z,56.10
2022-08-17T23:03:18.978Z,56.20
2022-08-17T23:05:49.890Z,56.40
2022-08-17T23:08:21.424Z,56.60
2022-08-17T23:10:50.339Z,56.60
2022-08-17T23:13:18.621Z,56.60
2022-08-17T23:15:52.149Z,56.70
2022-08-17T23:18:23.515Z,56.60
2022-08-17T23:20:54.720Z,56.50
2022-08-17T23:23:23.979Z,56.50
2022-08-17T23:25:52.349Z,57.00
2022-08-17T23:28:21.891Z,57.10
2022-08-17T23:30:54.070Z,57.10
2022-08-17T23:33:29.933Z,57.30
2022-08-17T23:35:58.876Z,58.20
2022-08-17T23:38:27.601Z,58.10
2022-08-17T23:41:01.021Z,58.10
2022-08-17T23:43:30.201Z,58.00
2022-08-17T23:46:03.723Z,58.00
2022-08-17T23:48:37.108Z,57.50
2022-08-17T23:51:13.405Z,57.60
2022-08-17T23:53:47.685Z,57.40
2022-08-17T23:56:24.095Z,57.10
2022-08-17T23:58:56.041Z,56.40
